OBBIOIBK

Guest
Details From OBBI - Bahrain Intl
To OIBK - Kish Island
Flight Number -
Tags Generated
Created
Modified
Stats Distance 180 nm / 333 km
Max Altitude 0 ft / 0 m
Waypoints 2
Social Downloads 3
Likes 0
Share VATSIM

Download

Looking for another format? Having issues loading an existing format? Contact us
Advertisement - Login to hide

Notes

Generated

Route

OBBI OIBK

ID Type Via Altitude Latitude Longitude Leg Dist Tot Dist Heading (true) Name
O OBBI APT - 0 ft / 0 m 26.27100˚ 50.62993˚ - 0 nm - -
O OIBK APT - 0 ft / 0 m 26.52756˚ 53.96192˚ 179 nm 179 nm 84° / 86° -

Altitude Profile

Advertisement - Login to hide

Weather


0- 5 10 15 20 25 30 35+ Temperature / ° C

Clouds and Precipitation
Forecast for 2018-05-23 06:00 UTC. Updated 27 minutes ago

Ground ~20,000 ft ~40,000 ft Winds

OBBI

Details ICAO OBBI (BAH)
Name BAHRAIN INTL
Region Bahrain
Timezone Asia/Bahrain (UTC+3.0)
Stats Elevation 6 ft / 2 m (AMSL)
Location 26.267837° 50.637095°
Runways 2
Magnetic Variation 2.783° E

METAR

OBBI 230530Z 30003KT 220V010 CAVOK 33/21 Q1010 NOSIG

Decode

TAF

TAF OBBI 222300Z 2300/2406 VRB05KT CAVOK= TAF OKBK 222245Z 2300/2406 VRB03KT 7000 SKC TEMPO 2304/2312 34010KT

Decode

Departure Runways

ID Width Length Bearing (true) Bearing (mag) Surface Threshold Offset Overrun Length
12L 197 ft / 60 m 12,893 ft / 3,930 m 122.74° 119.96° Asphalt 1,000 ft / 305 m 0 ft / 0 m
12R 148 ft / 45 m 8,303 ft / 2,531 m 122.76° 119.98° Asphalt 1,000 ft / 305 m 0 ft / 0 m
30L 148 ft / 45 m 8,303 ft / 2,531 m 302.77° 299.99° Asphalt 395 ft / 120 m 0 ft / 0 m
30R 197 ft / 60 m 12,893 ft / 3,930 m 302.75° 299.97° Asphalt 1,000 ft / 305 m 0 ft / 0 m

OIBK

Details ICAO OIBK (KIH)
Name Kish Island
Region Iran
Timezone Asia/Tehran (UTC+4.5)
Stats Elevation 101 ft / 31 m (AMSL)
Location 26.527005° 53.980242°
Runways 3
Magnetic Variation 2.448° E

METAR

OIBK 230530Z 19006KT 7000 NSC 32/22 Q1009

Decode

TAF

TAF OIBK 222300Z 2300/2406 30005MPS 7000 NSC TEMPO 2300/2304 2000 BR TEMPO 2310/2316 26010MPS 5000 SA TEMPO 2400/2404 2000 BR

Decode

Destination Runways

ID Width Length Bearing (true) Bearing (mag) Surface Threshold Offset Overrun Length
09 148 ft / 45 m 11,986 ft / 3,653 m 94.89° 92.44° Asphalt 0 ft / 0 m 1,181 ft / 360 m
09L 215 ft / 66 m 11,986 ft / 3,653 m 94.88° 92.43° Asphalt 0 ft / 0 m 0 ft / 0 m
09R 148 ft / 45 m 11,986 ft / 3,653 m 94.89° 92.44° Asphalt 0 ft / 0 m 1,181 ft / 360 m
27 148 ft / 45 m 11,986 ft / 3,653 m 274.91° 272.46° Asphalt 0 ft / 0 m 190 ft / 58 m
27L 148 ft / 45 m 11,986 ft / 3,653 m 274.90° 272.45° Asphalt 0 ft / 0 m 190 ft / 58 m
27R 215 ft / 66 m 11,986 ft / 3,653 m 274.90° 272.45° Asphalt 0 ft / 0 m 0 ft / 0 m